createdAt,value
2022-08-09T00:00:31.579Z,0.00
2022-08-09T00:01:43.026Z,0.00
2022-08-09T00:02:32.744Z,0.00
2022-08-09T00:04:05.837Z,0.00
2022-08-09T00:04:34.588Z,0.00
2022-08-09T00:06:18.272Z,0.00
2022-08-09T00:06:32.501Z,0.00
2022-08-09T00:07:31.492Z,0.00
2022-08-09T00:08:33.106Z,0.00
2022-08-09T00:09:31.465Z,0.00
2022-08-09T00:10:31.470Z,0.00
2022-08-09T00:11:58.431Z,0.00
2022-08-09T00:12:34.754Z,0.00
2022-08-09T00:13:31.622Z,0.00
2022-08-09T00:14:38.309Z,0.00
2022-08-09T00:15:57.696Z,0.00
2022-08-09T00:16:36.675Z,0.00
2022-08-09T00:18:05.036Z,0.00
2022-08-09T00:18:34.835Z,0.00
2022-08-09T00:19:31.348Z,0.00
2022-08-09T00:20:31.630Z,0.00
2022-08-09T00:21:31.329Z,0.00
2022-08-09T00:22:35.077Z,0.00
2022-08-09T00:23:57.103Z,0.00
2022-08-09T00:24:32.301Z,0.00
2022-08-09T00:25:33.084Z,0.00
2022-08-09T00:26:33.126Z,0.00
2022-08-09T00:27:31.260Z,0.00
2022-08-09T00:28:32.246Z,0.00
2022-08-09T00:30:09.989Z,0.00
2022-08-09T00:30:32.233Z,0.00
2022-08-09T00:31:58.704Z,0.00
2022-08-09T00:32:32.193Z,0.00
2022-08-09T00:33:32.754Z,0.00
2022-08-09T00:34:33.415Z,0.00
2022-08-09T00:35:42.837Z,0.00
2022-08-09T00:36:32.153Z,0.00
2022-08-09T00:37:32.531Z,0.00
2022-08-09T00:38:31.125Z,0.00
2022-08-09T00:40:09.553Z,0.00
2022-08-09T00:40:32.144Z,0.00
2022-08-09T00:44:11.924Z,0.00
2022-08-09T00:44:14.996Z,0.00
2022-08-09T00:44:16.261Z,0.00
2022-08-09T00:44:32.221Z,0.00
2022-08-09T00:45:31.069Z,0.00
2022-08-09T00:46:56.183Z,0.00
2022-08-09T00:47:35.793Z,0.00
2022-08-09T00:48:32.008Z,0.00
2022-08-09T00:49:31.105Z,0.00
2022-08-09T00:50:31.015Z,0.00
2022-08-09T00:51:33.808Z,0.00
2022-08-09T00:52:32.454Z,0.00
2022-08-09T00:53:30.961Z,0.00
2022-08-09T00:54:35.110Z,0.00
2022-08-09T00:56:02.972Z,0.00
2022-08-09T00:56:31.922Z,0.00
2022-08-09T00:57:34.511Z,0.00
2022-08-09T00:58:30.902Z,0.00
2022-08-09T00:59:41.551Z,0.00
2022-08-09T01:00:31.893Z,0.00
2022-08-09T01:01:32.434Z,0.00
2022-08-09T01:02:31.997Z,0.00
2022-08-09T01:03:30.843Z,0.00
2022-08-09T01:04:30.840Z,0.00
2022-08-09T01:05:50.980Z,0.00
2022-08-09T01:06:53.396Z,0.00
2022-08-09T01:07:37.580Z,0.00
2022-08-09T01:08:31.797Z,0.00
2022-08-09T01:09:36.486Z,0.00
2022-08-09T01:10:31.776Z,0.00
2022-08-09T01:11:30.936Z,0.00
2022-08-09T01:12:30.905Z,0.00
2022-08-09T01:13:31.166Z,0.00
2022-08-09T01:14:31.718Z,0.00
2022-08-09T01:15:30.719Z,0.00
2022-08-09T01:16:30.702Z,0.00
2022-08-09T01:17:30.727Z,0.00
2022-08-09T01:18:31.485Z,0.00
2022-08-09T01:19:43.044Z,0.00
2022-08-09T01:20:31.669Z,0.00
2022-08-09T01:21:41.299Z,0.00
2022-08-09T01:22:31.764Z,0.00
2022-08-09T01:24:02.940Z,0.00
2022-08-09T01:24:31.610Z,0.00
2022-08-09T01:25:30.601Z,0.00
2022-08-09T01:26:30.665Z,0.00
2022-08-09T01:27:30.571Z,0.00
2022-08-09T01:28:30.553Z,0.00
2022-08-09T01:29:41.114Z,0.00
2022-08-09T01:30:35.855Z,0.00
2022-08-09T01:32:29.703Z,0.00
2022-08-09T01:32:46.081Z,0.00
2022-08-09T01:33:52.494Z,0.00
2022-08-09T01:34:30.488Z,0.00
2022-08-09T01:35:38.703Z,0.00
2022-08-09T01:36:31.465Z,0.00
2022-08-09T01:38:05.661Z,0.00
2022-08-09T01:38:31.445Z,0.00
2022-08-09T01:39:30.539Z,0.00
2022-08-09T01:40:31.426Z,0.00
2022-08-09T01:41:30.407Z,0.00
2022-08-09T01:42:30.655Z,0.00
2022-08-09T01:43:30.381Z,0.00
2022-08-09T01:44:30.593Z,0.00
2022-08-09T01:45:30.358Z,0.00
2022-08-09T01:46:31.567Z,0.00
2022-08-09T01:47:31.421Z,0.00
2022-08-09T01:48:31.600Z,0.00
2022-08-09T01:49:31.941Z,0.00
2022-08-09T01:50:37.210Z,0.00
2022-08-09T01:51:32.212Z,0.00
2022-08-09T01:52:30.401Z,0.00
2022-08-09T01:53:41.293Z,0.00
2022-08-09T01:54:32.977Z,0.00
2022-08-09T01:55:30.272Z,0.00
2022-08-09T01:56:30.233Z,0.00
2022-08-09T01:57:30.225Z,0.00
2022-08-09T01:58:31.215Z,0.00
2022-08-09T01:59:32.411Z,0.00
2022-08-09T02:00:34.933Z,0.00
2022-08-09T02:01:59.898Z,0.00
2022-08-09T02:02:32.063Z,0.00
2022-08-09T02:03:30.155Z,0.00
2022-08-09T02:04:30.165Z,0.00
2022-08-09T02:05:35.595Z,0.00
2022-08-09T02:06:32.347Z,0.00
2022-08-09T02:08:40.275Z,0.00
2022-08-09T02:08:40.610Z,0.00
2022-08-09T02:09:41.983Z,0.00
2022-08-09T02:11:43.596Z,0.00
2022-08-09T02:12:41.686Z,0.00
2022-08-09T02:13:41.675Z,0.00
2022-08-09T02:14:41.677Z,0.00
2022-08-09T02:15:49.420Z,0.00
2022-08-09T02:16:59.548Z,0.00
2022-08-09T02:17:59.905Z,0.00
2022-08-09T02:18:43.037Z,0.00
2022-08-09T02:19:43.375Z,0.00
2022-08-09T02:20:41.597Z,0.00
2022-08-09T02:21:41.584Z,0.00
2022-08-09T02:22:41.725Z,0.00
2022-08-09T02:23:42.937Z,0.00
2022-08-09T02:24:41.560Z,0.00
2022-08-09T02:25:42.505Z,0.00
2022-08-09T02:26:42.688Z,0.00
2022-08-09T02:27:58.085Z,0.00
2022-08-09T02:28:42.786Z,0.00
2022-08-09T02:29:41.509Z,0.00
2022-08-09T02:30:41.681Z,0.00
2022-08-09T02:31:41.469Z,0.00
2022-08-09T02:32:41.465Z,0.00
2022-08-09T02:34:06.542Z,0.00
2022-08-09T02:34:51.908Z,0.00
2022-08-09T02:36:03.001Z,0.00
2022-08-09T02:36:42.425Z,0.00
2022-08-09T02:37:41.409Z,0.00
2022-08-09T02:38:41.395Z,0.00
2022-08-09T02:39:42.737Z,0.00
2022-08-09T02:40:41.448Z,0.00
2022-08-09T02:41:41.356Z,0.00
2022-08-09T02:42:41.347Z,0.00
2022-08-09T02:43:42.447Z,0.00
2022-08-09T02:44:42.346Z,0.00
2022-08-09T02:45:41.308Z,0.00
2022-08-09T02:46:41.300Z,0.00
2022-08-09T02:47:57.613Z,0.00
2022-08-09T02:48:45.990Z,0.00
2022-08-09T02:49:41.662Z,0.00
2022-08-09T02:50:41.251Z,0.00
2022-08-09T02:51:41.240Z,0.00
2022-08-09T02:52:41.230Z,0.00
2022-08-09T02:53:43.150Z,0.00
2022-08-09T02:54:54.134Z,0.00
2022-08-09T02:55:46.260Z,0.00
2022-08-09T02:56:42.182Z,0.00
2022-08-09T02:58:00.062Z,0.00
2022-08-09T02:58:42.183Z,0.00
2022-08-09T03:00:20.428Z,0.00
2022-08-09T03:00:57.920Z,0.00
2022-08-09T03:01:43.324Z,0.00
2022-08-09T03:02:58.598Z,0.00
2022-08-09T03:04:16.770Z,0.00
2022-08-09T03:04:42.134Z,0.00
2022-08-09T03:05:41.099Z,0.00
2022-08-09T03:06:41.076Z,0.00
2022-08-09T03:07:41.055Z,0.00
2022-08-09T03:08:42.047Z,0.00
2022-08-09T03:09:42.945Z,0.00
2022-08-09T03:10:41.025Z,0.00
2022-08-09T03:12:06.114Z,0.00
2022-08-09T03:12:42.008Z,0.00
2022-08-09T03:13:43.947Z,0.00
2022-08-09T03:14:41.988Z,0.00
2022-08-09T03:16:05.966Z,0.00
2022-08-09T03:16:45.137Z,0.00
2022-08-09T03:17:41.940Z,0.00
2022-08-09T03:18:40.931Z,0.00
2022-08-09T03:19:58.593Z,0.00
2022-08-09T03:20:41.910Z,0.00
2022-08-09T03:21:40.891Z,0.00
2022-08-09T03:22:41.989Z,0.00
2022-08-09T03:23:40.883Z,0.00
2022-08-09T03:24:51.966Z,0.00
2022-08-09T03:25:58.664Z,0.00
2022-08-09T03:26:45.025Z,0.00
2022-08-09T03:27:45.267Z,0.00
2022-08-09T03:28:40.823Z,0.00
2022-08-09T03:29:43.184Z,0.00
2022-08-09T03:30:43.507Z,0.00
2022-08-09T03:31:42.728Z,0.00
2022-08-09T03:32:43.074Z,0.00
2022-08-09T03:33:53.054Z,0.00
2022-08-09T03:34:41.765Z,0.00
2022-08-09T03:36:14.020Z,0.00
2022-08-09T03:36:41.727Z,0.00
2022-08-09T03:37:54.302Z,0.00
2022-08-09T03:38:42.956Z,0.00
2022-08-09T03:39:40.738Z,4.00
2022-08-09T03:40:41.678Z,4.00
2022-08-09T03:41:45.951Z,4.00
2022-08-09T03:42:43.176Z,0.00
2022-08-09T03:43:40.639Z,0.00
2022-08-09T03:44:40.649Z,0.00
2022-08-09T03:46:02.985Z,0.00
2022-08-09T03:46:41.611Z,0.00
2022-08-09T03:47:42.095Z,0.00
2022-08-09T03:48:51.069Z,4.00
2022-08-09T03:49:41.590Z,4.00
2022-08-09T03:50:41.570Z,4.00
2022-08-09T03:51:56.911Z,4.00
2022-08-09T03:52:41.774Z,0.00
2022-08-09T03:53:40.523Z,4.00
2022-08-09T03:54:40.534Z,4.00
2022-08-09T03:55:41.001Z,4.00
2022-08-09T03:56:41.423Z,4.00
2022-08-09T03:57:53.706Z,4.00
2022-08-09T03:58:41.474Z,4.00
2022-08-09T03:59:42.926Z,4.00
2022-08-09T04:00:40.493Z,8.00
2022-08-09T04:01:40.446Z,8.00
2022-08-09T04:02:40.435Z,4.00
2022-08-09T04:04:00.475Z,8.00
2022-08-09T04:04:41.426Z,8.00
2022-08-09T04:05:40.703Z,4.00
2022-08-09T04:06:40.387Z,8.00
2022-08-09T04:07:52.460Z,8.00
2022-08-09T04:08:41.369Z,8.00
2022-08-09T04:09:48.331Z,8.00
2022-08-09T04:10:41.339Z,8.00
2022-08-09T04:11:40.330Z,12.00
2022-08-09T04:12:40.328Z,8.00
2022-08-09T04:14:36.766Z,12.00
2022-08-09T04:15:00.515Z,8.00
2022-08-09T04:16:19.943Z,12.00
2022-08-09T04:16:41.272Z,12.00
2022-08-09T04:17:42.469Z,12.00
2022-08-09T04:18:40.252Z,16.00
2022-08-09T04:19:51.226Z,16.00
2022-08-09T04:20:41.234Z,16.00
2022-08-09T04:21:40.376Z,24.00
2022-08-09T04:22:41.078Z,28.00
2022-08-09T04:23:40.194Z,28.00
2022-08-09T04:24:41.195Z,32.00
2022-08-09T04:25:40.166Z,32.00
2022-08-09T04:26:40.159Z,32.00
2022-08-09T04:27:40.146Z,36.00
2022-08-09T04:28:42.318Z,36.00
2022-08-09T04:29:41.139Z,40.00
2022-08-09T04:30:42.825Z,40.00
2022-08-09T04:31:47.151Z,40.00
2022-08-09T04:32:41.383Z,40.00
2022-08-09T04:33:53.113Z,40.00
2022-08-09T04:34:41.078Z,44.00
2022-08-09T04:35:42.325Z,48.00
2022-08-09T04:36:43.626Z,48.00
2022-08-09T04:37:42.129Z,48.00
2022-08-09T04:38:41.026Z,52.00
2022-08-09T04:39:40.598Z,52.00
2022-08-09T04:40:40.009Z,56.00
2022-08-09T04:41:44.013Z,56.00
2022-08-09T04:42:39.972Z,56.00
2022-08-09T04:43:53.946Z,60.00
2022-08-09T04:44:40.961Z,60.00
2022-08-09T04:45:53.486Z,60.00
2022-08-09T04:46:58.194Z,60.00
2022-08-09T04:47:59.409Z,64.00
2022-08-09T04:48:40.903Z,60.00
2022-08-09T04:49:55.070Z,64.00
2022-08-09T04:50:40.883Z,64.00
2022-08-09T04:51:39.876Z,68.00
2022-08-09T04:52:39.864Z,68.00
2022-08-09T04:53:39.853Z,68.00
2022-08-09T04:54:39.846Z,68.00
2022-08-09T04:55:58.451Z,68.00
2022-08-09T04:56:40.817Z,72.00
2022-08-09T04:57:58.988Z,68.00
2022-08-09T04:58:40.803Z,72.00
2022-08-09T04:59:39.784Z,68.00
2022-08-09T05:00:39.768Z,72.00
2022-08-09T05:01:39.766Z,72.00
2022-08-09T05:02:39.754Z,68.00
2022-08-09T05:03:42.788Z,72.00
2022-08-09T05:04:39.768Z,68.00
2022-08-09T05:05:51.941Z,68.00
2022-08-09T05:06:40.707Z,68.00
2022-08-09T05:07:39.709Z,68.00
2022-08-09T05:08:43.906Z,68.00
2022-08-09T05:09:48.747Z,72.00
2022-08-09T05:10:40.661Z,68.00
2022-08-09T05:11:39.650Z,68.00
2022-08-09T05:12:39.632Z,68.00
2022-08-09T05:13:39.642Z,64.00
2022-08-09T05:14:41.192Z,68.00
2022-08-09T05:15:47.974Z,68.00
2022-08-09T05:16:57.947Z,64.00
2022-08-09T05:18:55.135Z,64.00
2022-08-09T05:18:58.779Z,64.00
2022-08-09T05:19:44.951Z,64.00
2022-08-09T05:20:40.547Z,60.00
2022-08-09T05:21:47.402Z,60.00
2022-08-09T05:23:50.965Z,60.00
2022-08-09T05:23:57.815Z,60.00
2022-08-09T05:24:40.505Z,60.00
2022-08-09T05:25:39.497Z,60.00
2022-08-09T05:26:46.165Z,56.00
2022-08-09T05:27:46.442Z,56.00
2022-08-09T05:28:40.470Z,60.00
2022-08-09T05:29:39.457Z,56.00
2022-08-09T05:30:41.710Z,56.00
2022-08-09T05:31:46.709Z,52.00
2022-08-09T05:32:40.400Z,56.00
2022-08-09T05:33:42.513Z,52.00
2022-08-09T05:34:42.868Z,52.00
2022-08-09T05:35:46.857Z,52.00
2022-08-09T05:36:40.393Z,52.00
2022-08-09T05:37:47.599Z,52.00
2022-08-09T05:38:40.354Z,52.00
2022-08-09T05:39:43.153Z,52.00
2022-08-09T05:40:39.332Z,52.00
2022-08-09T05:41:39.307Z,48.00
2022-08-09T05:42:39.292Z,48.00
2022-08-09T05:43:39.304Z,52.00
2022-08-09T05:44:40.275Z,48.00
2022-08-09T05:45:52.638Z,48.00
2022-08-09T05:46:40.245Z,48.00
2022-08-09T05:47:45.539Z,48.00
2022-08-09T05:48:40.236Z,48.00
2022-08-09T05:50:25.346Z,48.00
2022-08-09T05:50:50.968Z,48.00
2022-08-09T05:51:45.971Z,48.00
2022-08-09T05:52:40.179Z,48.00
2022-08-09T05:53:56.817Z,48.00
2022-08-09T05:54:40.155Z,48.00
2022-08-09T05:55:39.147Z,48.00
2022-08-09T05:56:39.128Z,48.00
2022-08-09T05:57:56.442Z,48.00
2022-08-09T05:58:40.118Z,48.00
2022-08-09T05:59:39.100Z,48.00
2022-08-09T06:00:39.090Z,48.00
2022-08-09T06:01:42.564Z,48.00
2022-08-09T06:02:39.094Z,48.00
2022-08-09T06:03:44.050Z,48.00
2022-08-09T06:04:44.587Z,48.00
2022-08-09T06:05:57.219Z,48.00
2022-08-09T06:06:43.805Z,48.00
2022-08-09T06:07:40.012Z,48.00
2022-08-09T06:08:39.012Z,48.00
2022-08-09T06:09:54.306Z,48.00
2022-08-09T06:10:39.974Z,52.00
2022-08-09T06:11:41.133Z,52.00
2022-08-09T06:12:39.944Z,52.00
2022-08-09T06:13:38.953Z,52.00
2022-08-09T06:14:38.925Z,48.00
2022-08-09T06:15:38.915Z,48.00
2022-08-09T06:16:38.896Z,48.00
2022-08-09T06:17:40.594Z,48.00
2022-08-09T06:18:38.898Z,48.00
2022-08-09T06:19:38.868Z,48.00
2022-08-09T06:20:38.857Z,48.00
2022-08-09T06:21:39.670Z,52.00
2022-08-09T06:22:39.829Z,52.00
2022-08-09T06:23:57.410Z,52.00
2022-08-09T06:24:39.809Z,52.00
2022-08-09T06:25:38.811Z,52.00
2022-08-09T06:26:38.797Z,52.00
2022-08-09T06:27:42.470Z,52.00
2022-08-09T06:28:38.782Z,52.00
2022-08-09T06:29:48.073Z,48.00
2022-08-09T06:30:39.742Z,52.00
2022-08-09T06:31:40.233Z,52.00
2022-08-09T06:33:13.636Z,52.00
2022-08-09T06:33:42.019Z,52.00
2022-08-09T06:34:39.693Z,52.00
2022-08-09T06:35:56.988Z,52.00
2022-08-09T06:36:43.798Z,52.00
2022-08-09T06:37:49.814Z,52.00
2022-08-09T06:38:39.664Z,52.00
2022-08-09T06:39:57.692Z,52.00
2022-08-09T06:40:39.679Z,52.00
2022-08-09T06:42:00.467Z,52.00
2022-08-09T06:42:45.227Z,52.00
2022-08-09T06:43:39.748Z,52.00
2022-08-09T06:44:38.586Z,52.00
2022-08-09T06:46:07.629Z,52.00
2022-08-09T06:46:41.315Z,52.00
2022-08-09T06:47:39.870Z,56.00
2022-08-09T06:48:43.154Z,56.00
2022-08-09T06:49:52.310Z,56.00
2022-08-09T06:50:39.508Z,56.00
2022-08-09T06:51:39.121Z,56.00
2022-08-09T06:52:38.489Z,56.00
2022-08-09T06:53:38.850Z,52.00
2022-08-09T06:54:38.470Z,52.00
2022-08-09T06:55:38.464Z,52.00
2022-08-09T06:56:38.441Z,52.00
2022-08-09T06:58:01.092Z,52.00
2022-08-09T07:00:46.942Z,52.00
2022-08-09T07:00:51.562Z,56.00
2022-08-09T07:00:54.831Z,56.00
2022-08-09T07:01:58.088Z,56.00
2022-08-09T07:02:39.399Z,56.00
2022-08-09T07:03:39.643Z,52.00
2022-08-09T07:04:39.354Z,52.00
2022-08-09T07:06:02.842Z,52.00
2022-08-09T07:06:39.336Z,56.00
2022-08-09T07:08:00.389Z,56.00
2022-08-09T07:08:39.538Z,56.00
2022-08-09T07:09:56.502Z,56.00
2022-08-09T07:10:39.286Z,56.00
2022-08-09T07:11:52.235Z,56.00
2022-08-09T07:12:41.104Z,56.00
2022-08-09T07:13:45.055Z,56.00
2022-08-09T07:14:39.238Z,56.00
2022-08-09T07:15:53.722Z,56.00
2022-08-09T07:16:48.163Z,56.00
2022-08-09T07:17:39.944Z,56.00
2022-08-09T07:18:39.221Z,56.00
2022-08-09T07:19:38.189Z,56.00
2022-08-09T07:20:39.706Z,60.00
2022-08-09T07:21:39.170Z,60.00
2022-08-09T07:22:46.410Z,56.00
2022-08-09T07:23:56.364Z,56.00
2022-08-09T07:24:40.555Z,56.00
2022-08-09T07:25:42.667Z,56.00
2022-08-09T07:26:38.101Z,56.00
2022-08-09T07:27:42.353Z,60.00
2022-08-09T07:28:39.106Z,60.00
2022-08-09T07:29:42.531Z,60.00
2022-08-09T07:30:38.063Z,56.00
2022-08-09T07:31:38.606Z,56.00
2022-08-09T07:32:39.160Z,56.00
2022-08-09T07:33:52.574Z,60.00
2022-08-09T07:34:39.016Z,60.00
2022-08-09T07:35:53.430Z,60.00
2022-08-09T07:36:39.002Z,60.00
2022-08-09T07:37:43.588Z,56.00
2022-08-09T07:38:38.986Z,56.00
2022-08-09T07:39:40.919Z,60.00
2022-08-09T07:41:00.846Z,60.00
2022-08-09T07:41:39.100Z,60.00
2022-08-09T07:42:37.917Z,60.00
2022-08-09T07:43:49.614Z,60.00
2022-08-09T07:44:51.159Z,60.00
2022-08-09T07:45:40.198Z,60.00
2022-08-09T07:46:37.878Z,60.00
2022-08-09T07:47:49.415Z,60.00
2022-08-09T07:48:39.139Z,60.00
2022-08-09T07:50:05.335Z,60.00
2022-08-09T07:50:38.831Z,60.00
2022-08-09T07:52:04.715Z,60.00
2022-08-09T07:52:38.811Z,60.00
2022-08-09T07:54:07.515Z,60.00
2022-08-09T07:54:38.791Z,60.00
2022-08-09T07:55:41.456Z,60.00
2022-08-09T07:56:45.011Z,60.00
2022-08-09T07:57:47.069Z,60.00
2022-08-09T07:58:38.764Z,60.00
2022-08-09T07:59:50.895Z,60.00
2022-08-09T08:00:55.683Z,60.00
2022-08-09T08:01:38.762Z,60.00
2022-08-09T08:02:42.577Z,60.00
2022-08-09T08:03:38.696Z,60.00
2022-08-09T08:04:37.684Z,64.00
2022-08-09T08:05:54.273Z,64.00
2022-08-09T08:06:55.817Z,60.00
2022-08-09T08:08:45.216Z,60.00
2022-08-09T08:09:02.690Z,60.00
2022-08-09T08:09:51.702Z,60.00
2022-08-09T08:10:38.608Z,60.00
2022-08-09T08:12:10.577Z,60.00
2022-08-09T08:12:43.690Z,60.00
2022-08-09T08:13:45.011Z,64.00
2022-08-09T08:14:38.570Z,64.00
2022-08-09T08:15:39.413Z,64.00
2022-08-09T08:16:39.691Z,64.00
2022-08-09T08:17:53.639Z,60.00
2022-08-09T08:18:38.511Z,60.00
2022-08-09T08:19:37.511Z,60.00
2022-08-09T08:20:37.507Z,60.00
2022-08-09T08:21:39.449Z,60.00
2022-08-09T08:22:37.480Z,64.00
2022-08-09T08:23:37.471Z,64.00
2022-08-09T08:24:40.262Z,64.00
2022-08-09T08:25:44.616Z,64.00
2022-08-09T08:26:54.702Z,64.00
2022-08-09T08:27:40.891Z,64.00
2022-08-09T08:28:37.394Z,64.00
2022-08-09T08:29:39.265Z,64.00
2022-08-09T08:30:39.134Z,60.00
2022-08-09T08:32:02.766Z,60.00
2022-08-09T08:32:41.471Z,64.00
2022-08-09T08:33:40.877Z,64.00
2022-08-09T08:34:38.352Z,64.00
2022-08-09T08:35:58.726Z,64.00
2022-08-09T08:36:40.148Z,64.00
2022-08-09T08:37:41.004Z,64.00
2022-08-09T08:38:38.283Z,64.00
2022-08-09T08:39:38.271Z,64.00
2022-08-09T08:40:38.269Z,64.00
2022-08-09T08:41:50.799Z,64.00
2022-08-09T08:42:38.250Z,64.00
2022-08-09T08:43:38.233Z,64.00
2022-08-09T08:44:37.226Z,64.00
2022-08-09T08:45:38.015Z,64.00
2022-08-09T08:46:41.465Z,64.00
2022-08-09T08:47:38.521Z,64.00
2022-08-09T08:48:38.173Z,68.00
2022-08-09T08:49:47.347Z,68.00
2022-08-09T08:50:38.156Z,64.00
2022-08-09T08:51:38.862Z,64.00
2022-08-09T08:52:58.926Z,64.00
2022-08-09T08:53:38.125Z,64.00
2022-08-09T08:54:38.105Z,64.00
2022-08-09T08:55:37.094Z,64.00
2022-08-09T08:56:37.656Z,68.00
2022-08-09T08:57:37.755Z,68.00
2022-08-09T08:58:37.058Z,68.00
2022-08-09T08:59:46.465Z,68.00
2022-08-09T09:00:38.045Z,64.00
2022-08-09T09:01:51.940Z,64.00
2022-08-09T09:02:38.535Z,64.00
2022-08-09T09:03:37.574Z,68.00
2022-08-09T09:04:47.908Z,68.00
2022-08-09T09:06:00.438Z,68.00
2022-08-09T09:06:37.969Z,68.00
2022-08-09T09:07:37.111Z,68.00
2022-08-09T09:08:42.523Z,64.00
2022-08-09T09:09:58.318Z,64.00
2022-08-09T09:10:37.929Z,68.00
2022-08-09T09:11:38.670Z,68.00
2022-08-09T09:12:37.137Z,68.00
2022-08-09T09:13:55.530Z,68.00
2022-08-09T09:14:37.884Z,68.00
2022-08-09T09:15:36.863Z,68.00
2022-08-09T09:16:36.864Z,68.00
2022-08-09T09:17:49.010Z,72.00
2022-08-09T09:18:37.833Z,68.00
2022-08-09T09:19:41.256Z,68.00
2022-08-09T09:20:37.810Z,68.00
2022-08-09T09:21:43.469Z,68.00
2022-08-09T09:22:38.043Z,68.00
2022-08-09T09:23:38.036Z,68.00
2022-08-09T09:24:37.747Z,72.00
2022-08-09T09:26:03.681Z,72.00
2022-08-09T09:26:37.746Z,72.00
2022-08-09T09:28:06.307Z,68.00
2022-08-09T09:29:02.783Z,68.00
2022-08-09T09:30:08.521Z,68.00
2022-08-09T09:30:41.147Z,68.00
2022-08-09T09:32:06.220Z,72.00
2022-08-09T09:32:37.886Z,72.00
2022-08-09T09:33:44.800Z,72.00
2022-08-09T09:34:37.650Z,72.00
2022-08-09T09:35:36.633Z,72.00
2022-08-09T09:36:36.630Z,72.00
2022-08-09T09:37:36.622Z,68.00
2022-08-09T09:38:37.107Z,68.00
2022-08-09T09:39:50.412Z,72.00
2022-08-09T09:40:37.633Z,72.00
2022-08-09T09:41:48.704Z,72.00
2022-08-09T09:42:37.572Z,72.00
2022-08-09T09:43:41.748Z,72.00
2022-08-09T09:44:37.553Z,72.00
2022-08-09T09:45:57.042Z,72.00
2022-08-09T09:46:42.826Z,72.00
2022-08-09T09:47:47.662Z,68.00
2022-08-09T09:48:37.498Z,72.00
2022-08-09T09:50:07.422Z,72.00
2022-08-09T09:50:37.466Z,72.00
2022-08-09T09:51:38.636Z,72.00
2022-08-09T09:52:37.708Z,72.00
2022-08-09T09:53:57.642Z,72.00
2022-08-09T09:54:37.416Z,72.00
2022-08-09T09:55:36.409Z,76.00
2022-08-09T09:56:37.408Z,76.00
2022-08-09T09:58:03.253Z,72.00
2022-08-09T09:58:37.411Z,72.00
2022-08-09T09:59:36.358Z,72.00
2022-08-09T10:00:36.367Z,72.00
2022-08-09T10:01:38.101Z,72.00
2022-08-09T10:02:36.353Z,72.00
2022-08-09T10:03:36.332Z,76.00
2022-08-09T10:04:36.338Z,76.00
2022-08-09T10:06:03.355Z,76.00
2022-08-09T10:06:37.281Z,72.00
2022-08-09T10:07:37.285Z,72.00
2022-08-09T10:08:44.268Z,72.00
2022-08-09T10:09:37.242Z,76.00
2022-08-09T10:10:36.233Z,76.00
2022-08-09T10:11:59.696Z,76.00
2022-08-09T10:12:37.230Z,76.00
2022-08-09T10:13:45.204Z,76.00
2022-08-09T10:14:37.195Z,76.00
2022-08-09T10:16:09.674Z,76.00
2022-08-09T10:16:56.851Z,76.00
2022-08-09T10:17:50.966Z,76.00
2022-08-09T10:18:37.146Z,72.00
2022-08-09T10:19:36.926Z,76.00
2022-08-09T10:20:45.072Z,76.00
2022-08-09T10:21:37.114Z,76.00
2022-08-09T10:22:36.192Z,76.00
2022-08-09T10:23:36.107Z,80.00
2022-08-09T10:24:36.395Z,76.00
2022-08-09T10:26:06.517Z,80.00
2022-08-09T10:26:37.067Z,80.00
2022-08-09T10:27:38.543Z,76.00
2022-08-09T10:28:36.036Z,44.00
2022-08-09T10:30:23.585Z,64.00
2022-08-09T10:32:42.205Z,36.00
2022-08-09T10:34:09.544Z,36.00
2022-08-09T10:34:36.981Z,36.00
2022-08-09T10:35:35.975Z,40.00
2022-08-09T10:36:36.070Z,40.00
2022-08-09T10:37:38.423Z,64.00
2022-08-09T10:38:56.052Z,80.00
2022-08-09T10:39:40.843Z,80.00
2022-08-09T10:40:40.927Z,80.00
2022-08-09T10:41:36.903Z,80.00
2022-08-09T10:42:35.916Z,80.00
2022-08-09T10:43:47.120Z,80.00
2022-08-09T10:44:36.855Z,80.00
2022-08-09T10:45:42.415Z,80.00
2022-08-09T10:46:47.621Z,84.00
2022-08-09T10:48:16.595Z,88.00
2022-08-09T10:48:36.952Z,84.00
2022-08-09T10:49:50.880Z,84.00
2022-08-09T10:50:36.787Z,84.00
2022-08-09T10:51:40.786Z,84.00
2022-08-09T10:52:36.778Z,84.00
2022-08-09T10:53:37.993Z,72.00
2022-08-09T10:54:36.529Z,76.00
2022-08-09T10:55:55.774Z,80.00
2022-08-09T10:56:36.745Z,84.00
2022-08-09T10:57:36.369Z,84.00
2022-08-09T10:58:37.395Z,56.00
2022-08-09T10:59:55.393Z,48.00
2022-08-09T11:00:36.705Z,48.00
2022-08-09T11:03:13.390Z,60.00
2022-08-09T11:03:14.933Z,48.00
2022-08-09T11:03:50.135Z,88.00
2022-08-09T11:04:36.702Z,88.00
2022-08-09T11:05:36.862Z,88.00
2022-08-09T11:06:37.294Z,88.00
2022-08-09T11:07:56.611Z,88.00
2022-08-09T11:08:43.703Z,84.00
2022-08-09T11:09:37.227Z,88.00
2022-08-09T11:10:35.554Z,88.00
2022-08-09T11:11:35.564Z,88.00
2022-08-09T11:12:38.303Z,92.00
2022-08-09T11:13:50.806Z,60.00
2022-08-09T11:14:37.896Z,56.00
2022-08-09T11:15:50.866Z,52.00
2022-08-09T11:16:37.141Z,52.00
2022-08-09T11:17:42.081Z,52.00
2022-08-09T11:18:36.477Z,52.00
2022-08-09T11:20:08.055Z,76.00
2022-08-09T11:20:36.438Z,60.00
2022-08-09T11:21:35.439Z,88.00
2022-08-09T11:22:36.752Z,100.00
2022-08-09T11:23:35.409Z,84.00
2022-08-09T11:24:35.398Z,104.00
2022-08-09T11:25:44.742Z,100.00
2022-08-09T11:26:36.391Z,80.00
2022-08-09T11:28:03.165Z,104.00
2022-08-09T11:28:38.875Z,104.00
2022-08-09T11:30:05.074Z,100.00
2022-08-09T11:30:37.302Z,68.00
2022-08-09T11:31:36.820Z,68.00
2022-08-09T11:32:35.303Z,68.00
2022-08-09T11:33:35.302Z,72.00
2022-08-09T11:34:35.291Z,68.00
2022-08-09T11:35:49.683Z,64.00
2022-08-09T11:36:37.030Z,76.00
2022-08-09T11:37:40.801Z,80.00
2022-08-09T11:38:41.334Z,60.00
2022-08-09T11:39:38.655Z,60.00
2022-08-09T11:40:35.225Z,72.00
2022-08-09T11:41:37.576Z,64.00
2022-08-09T11:42:35.232Z,60.00
2022-08-09T11:43:37.428Z,64.00
2022-08-09T11:44:35.167Z,68.00
2022-08-09T11:45:37.857Z,68.00
2022-08-09T11:46:36.925Z,92.00
2022-08-09T11:47:35.235Z,100.00
2022-08-09T11:48:36.004Z,100.00
2022-08-09T11:49:42.782Z,96.00
2022-08-09T11:50:56.797Z,96.00
2022-08-09T11:53:03.665Z,96.00
2022-08-09T11:53:16.564Z,96.00
2022-08-09T11:53:59.696Z,96.00
2022-08-09T11:54:36.102Z,96.00
2022-08-09T11:55:52.772Z,92.00
2022-08-09T11:56:47.823Z,96.00
2022-08-09T11:58:00.630Z,96.00
2022-08-09T11:58:36.012Z,96.00
2022-08-09T11:59:35.103Z,96.00
2022-08-09T12:00:34.993Z,100.00
2022-08-09T12:02:00.492Z,96.00
2022-08-09T12:02:39.708Z,100.00
2022-08-09T12:03:56.685Z,96.00
2022-08-09T12:04:37.463Z,96.00
2022-08-09T12:05:39.537Z,96.00
2022-08-09T12:06:35.944Z,96.00
2022-08-09T12:07:42.195Z,88.00
2022-08-09T12:08:35.904Z,56.00
2022-08-09T12:09:34.889Z,64.00
2022-08-09T12:10:39.882Z,68.00
2022-08-09T12:11:37.896Z,60.00
2022-08-09T12:12:36.636Z,64.00
2022-08-09T12:14:06.950Z,64.00
2022-08-09T12:14:36.853Z,64.00
2022-08-09T12:15:48.733Z,60.00
2022-08-09T12:16:38.350Z,60.00
2022-08-09T12:17:43.610Z,60.00
2022-08-09T12:18:35.789Z,68.00
2022-08-09T12:19:34.769Z,64.00
2022-08-09T12:20:35.820Z,60.00
2022-08-09T12:21:38.866Z,60.00
2022-08-09T12:22:35.846Z,64.00
2022-08-09T12:23:57.954Z,64.00
2022-08-09T12:24:35.723Z,64.00
2022-08-09T12:25:37.437Z,72.00
2022-08-09T12:26:34.721Z,96.00
2022-08-09T12:28:58.428Z,88.00
2022-08-09T12:29:10.128Z,92.00
2022-08-09T12:29:44.605Z,84.00
2022-08-09T12:30:39.084Z,88.00
2022-08-09T12:32:02.780Z,92.00
2022-08-09T12:32:35.741Z,92.00
2022-08-09T12:33:59.183Z,92.00
2022-08-09T12:34:35.606Z,92.00
2022-08-09T12:35:40.163Z,96.00
2022-08-09T12:36:36.127Z,92.00
2022-08-09T12:37:37.836Z,92.00
2022-08-09T12:38:37.999Z,64.00
2022-08-09T12:39:37.651Z,72.00
2022-08-09T12:40:34.556Z,68.00
2022-08-09T12:41:39.680Z,72.00
2022-08-09T12:42:35.796Z,64.00
2022-08-09T12:44:05.405Z,64.00
2022-08-09T12:44:37.517Z,64.00
2022-08-09T12:45:38.818Z,76.00
2022-08-09T12:46:34.467Z,64.00
2022-08-09T12:47:40.723Z,64.00
2022-08-09T12:48:37.407Z,64.00
2022-08-09T12:49:34.439Z,64.00
2022-08-09T12:50:35.190Z,64.00
2022-08-09T12:52:00.787Z,88.00
2022-08-09T12:52:42.884Z,92.00
2022-08-09T12:53:38.447Z,92.00
2022-08-09T12:54:35.841Z,88.00
2022-08-09T12:56:15.327Z,88.00
2022-08-09T12:56:44.021Z,84.00
2022-08-09T12:57:35.915Z,88.00
2022-08-09T12:58:34.348Z,92.00
2022-08-09T12:59:39.977Z,92.00
2022-08-09T13:00:35.325Z,92.00
2022-08-09T13:01:34.399Z,92.00
2022-08-09T13:02:34.516Z,92.00
2022-08-09T13:03:57.054Z,88.00